sensor_id;sensor_type;location;lat;lon;timestamp;P1;durP1;ratioP1;P2;durP2;ratioP2
16171;SDS011;8192;53.596;10.166;2023-11-21T00:00:42;19.90;;;18.60;;
16171;SDS011;8192;53.596;10.166;2023-11-21T00:03:10;19.77;;;18.47;;
16171;SDS011;8192;53.596;10.166;2023-11-21T00:05:39;19.83;;;18.53;;
16171;SDS011;8192;53.596;10.166;2023-11-21T00:08:08;20.10;;;18.70;;
16171;SDS011;8192;53.596;10.166;2023-11-21T00:10:35;20.10;;;18.80;;
16171;SDS011;8192;53.596;10.166;2023-11-21T00:13:03;19.80;;;18.50;;
16171;SDS011;8192;53.596;10.166;2023-11-21T00:15:30;20.10;;;18.80;;
16171;SDS011;8192;53.596;10.166;2023-11-21T00:17:57;20.57;;;19.17;;
16171;SDS011;8192;53.596;10.166;2023-11-21T00:20:26;20.70;;;19.30;;
16171;SDS011;8192;53.596;10.166;2023-11-21T00:22:53;21.50;;;20.00;;
16171;SDS011;8192;53.596;10.166;2023-11-21T00:25:21;21.00;;;19.60;;
16171;SDS011;8192;53.596;10.166;2023-11-21T00:27:48;21.10;;;19.70;;
16171;SDS011;8192;53.596;10.166;2023-11-21T00:30:15;21.17;;;19.77;;
16171;SDS011;8192;53.596;10.166;2023-11-21T00:32:42;20.90;;;19.50;;
16171;SDS011;8192;53.596;10.166;2023-11-21T00:35:10;21.20;;;19.80;;
16171;SDS011;8192;53.596;10.166;2023-11-21T00:37:37;21.07;;;19.67;;
16171;SDS011;8192;53.596;10.166;2023-11-21T00:40:05;21.00;;;19.60;;
16171;SDS011;8192;53.596;10.166;2023-11-21T00:42:34;20.87;;;19.47;;
16171;SDS011;8192;53.596;10.166;2023-11-21T00:45:01;20.93;;;19.53;;
16171;SDS011;8192;53.596;10.166;2023-11-21T00:47:29;21.53;;;20.13;;
16171;SDS011;8192;53.596;10.166;2023-11-21T00:49:55;21.33;;;19.93;;
16171;SDS011;8192;53.596;10.166;2023-11-21T00:52:23;23.17;;;21.43;;
16171;SDS011;8192;53.596;10.166;2023-11-21T00:54:49;21.40;;;20.00;;
16171;SDS011;8192;53.596;10.166;2023-11-21T00:57:16;21.73;;;20.27;;
16171;SDS011;8192;53.596;10.166;2023-11-21T00:59:45;21.50;;;20.00;;
16171;SDS011;8192;53.596;10.166;2023-11-21T01:02:12;21.17;;;19.77;;
16171;SDS011;8192;53.596;10.166;2023-11-21T01:04:39;22.77;;;21.27;;
16171;SDS011;8192;53.596;10.166;2023-11-21T01:07:06;22.03;;;20.53;;
16171;SDS011;8192;53.596;10.166;2023-11-21T01:09:32;21.50;;;20.10;;
16171;SDS011;8192;53.596;10.166;2023-11-21T01:11:59;20.93;;;19.53;;
16171;SDS011;8192;53.596;10.166;2023-11-21T01:14:28;20.83;;;19.43;;
16171;SDS011;8192;53.596;10.166;2023-11-21T01:16:56;21.10;;;19.70;;
16171;SDS011;8192;53.596;10.166;2023-11-21T01:19:23;20.73;;;19.33;;
16171;SDS011;8192;53.596;10.166;2023-11-21T01:21:50;20.97;;;19.57;;
16171;SDS011;8192;53.596;10.166;2023-11-21T01:24:18;21.10;;;19.70;;
16171;SDS011;8192;53.596;10.166;2023-11-21T01:26:45;21.30;;;19.90;;
16171;SDS011;8192;53.596;10.166;2023-11-21T01:29:12;20.80;;;19.40;;
16171;SDS011;8192;53.596;10.166;2023-11-21T01:31:38;21.93;;;20.43;;
16171;SDS011;8192;53.596;10.166;2023-11-21T01:34:07;21.43;;;20.03;;
16171;SDS011;8192;53.596;10.166;2023-11-21T01:36:34;20.90;;;19.50;;
16171;SDS011;8192;53.596;10.166;2023-11-21T01:39:01;20.93;;;19.53;;
16171;SDS011;8192;53.596;10.166;2023-11-21T01:41:33;21.50;;;20.10;;
16171;SDS011;8192;53.596;10.166;2023-11-21T01:44:00;21.00;;;19.60;;
16171;SDS011;8192;53.596;10.166;2023-11-21T01:46:27;20.80;;;19.40;;
16171;SDS011;8192;53.596;10.166;2023-11-21T01:48:55;20.90;;;19.50;;
16171;SDS011;8192;53.596;10.166;2023-11-21T01:51:24;20.80;;;19.40;;
16171;SDS011;8192;53.596;10.166;2023-11-21T01:53:51;20.47;;;19.07;;
16171;SDS011;8192;53.596;10.166;2023-11-21T01:56:19;20.77;;;19.37;;
16171;SDS011;8192;53.596;10.166;2023-11-21T01:58:46;21.10;;;19.70;;
16171;SDS011;8192;53.596;10.166;2023-11-21T02:01:16;20.90;;;19.50;;
16171;SDS011;8192;53.596;10.166;2023-11-21T02:03:44;20.97;;;19.57;;
16171;SDS011;8192;53.596;10.166;2023-11-21T02:06:11;20.40;;;19.00;;
16171;SDS011;8192;53.596;10.166;2023-11-21T02:08:40;20.43;;;19.03;;
16171;SDS011;8192;53.596;10.166;2023-11-21T02:11:09;20.87;;;19.43;;
16171;SDS011;8192;53.596;10.166;2023-11-21T02:13:38;21.00;;;19.60;;
16171;SDS011;8192;53.596;10.166;2023-11-21T02:16:08;21.80;;;20.30;;
16171;SDS011;8192;53.596;10.166;2023-11-21T02:18:37;21.30;;;19.83;;
16171;SDS011;8192;53.596;10.166;2023-11-21T02:21:04;20.87;;;19.47;;
16171;SDS011;8192;53.596;10.166;2023-11-21T02:23:34;20.40;;;19.00;;
16171;SDS011;8192;53.596;10.166;2023-11-21T02:26:01;20.60;;;19.20;;
16171;SDS011;8192;53.596;10.166;2023-11-21T02:28:29;21.30;;;19.80;;
16171;SDS011;8192;53.596;10.166;2023-11-21T02:30:56;20.60;;;19.20;;
16171;SDS011;8192;53.596;10.166;2023-11-21T02:33:24;20.50;;;19.10;;
16171;SDS011;8192;53.596;10.166;2023-11-21T02:35:51;20.17;;;18.77;;
16171;SDS011;8192;53.596;10.166;2023-11-21T02:38:19;20.13;;;18.73;;
16171;SDS011;8192;53.596;10.166;2023-11-21T02:40:48;20.03;;;18.63;;
16171;SDS011;8192;53.596;10.166;2023-11-21T02:43:15;19.90;;;18.60;;
16171;SDS011;8192;53.596;10.166;2023-11-21T02:45:42;20.20;;;18.80;;
16171;SDS011;8192;53.596;10.166;2023-11-21T02:48:09;20.77;;;19.27;;
16171;SDS011;8192;53.596;10.166;2023-11-21T02:50:36;20.30;;;18.90;;
16171;SDS011;8192;53.596;10.166;2023-11-21T02:53:03;19.97;;;18.57;;
16171;SDS011;8192;53.596;10.166;2023-11-21T02:55:31;20.07;;;18.67;;
16171;SDS011;8192;53.596;10.166;2023-11-21T02:58:03;20.53;;;19.13;;
16171;SDS011;8192;53.596;10.166;2023-11-21T03:00:31;20.17;;;18.77;;
16171;SDS011;8192;53.596;10.166;2023-11-21T03:02:58;21.27;;;19.67;;
16171;SDS011;8192;53.596;10.166;2023-11-21T03:05:25;20.13;;;18.73;;
16171;SDS011;8192;53.596;10.166;2023-11-21T03:07:54;20.33;;;18.93;;
16171;SDS011;8192;53.596;10.166;2023-11-21T03:10:21;20.70;;;19.30;;
16171;SDS011;8192;53.596;10.166;2023-11-21T03:12:48;20.77;;;19.37;;
16171;SDS011;8192;53.596;10.166;2023-11-21T03:15:16;20.60;;;19.20;;
16171;SDS011;8192;53.596;10.166;2023-11-21T03:17:43;20.50;;;19.10;;
16171;SDS011;8192;53.596;10.166;2023-11-21T03:20:10;19.97;;;18.57;;
16171;SDS011;8192;53.596;10.166;2023-11-21T03:22:39;20.47;;;19.07;;
16171;SDS011;8192;53.596;10.166;2023-11-21T03:25:06;21.13;;;19.63;;
16171;SDS011;8192;53.596;10.166;2023-11-21T03:27:36;20.53;;;19.07;;
16171;SDS011;8192;53.596;10.166;2023-11-21T03:30:04;21.23;;;19.73;;
16171;SDS011;8192;53.596;10.166;2023-11-21T03:32:34;20.70;;;19.20;;
16171;SDS011;8192;53.596;10.166;2023-11-21T03:35:01;20.87;;;19.37;;
16171;SDS011;8192;53.596;10.166;2023-11-21T03:37:28;21.60;;;20.00;;
16171;SDS011;8192;53.596;10.166;2023-11-21T03:39:55;20.00;;;18.60;;
16171;SDS011;8192;53.596;10.166;2023-11-21T03:42:23;20.50;;;19.10;;
16171;SDS011;8192;53.596;10.166;2023-11-21T03:44:50;20.33;;;18.93;;
16171;SDS011;8192;53.596;10.166;2023-11-21T03:47:17;20.60;;;19.20;;
16171;SDS011;8192;53.596;10.166;2023-11-21T03:49:46;20.60;;;19.17;;
16171;SDS011;8192;53.596;10.166;2023-11-21T03:52:14;20.20;;;18.80;;
16171;SDS011;8192;53.596;10.166;2023-11-21T03:54:40;20.43;;;19.03;;
16171;SDS011;8192;53.596;10.166;2023-11-21T03:57:08;20.17;;;18.77;;
16171;SDS011;8192;53.596;10.166;2023-11-21T03:59:35;20.20;;;18.80;;
16171;SDS011;8192;53.596;10.166;2023-11-21T04:02:03;20.43;;;19.03;;
16171;SDS011;8192;53.596;10.166;2023-11-21T04:04:30;20.67;;;19.20;;
16171;SDS011;8192;53.596;10.166;2023-11-21T04:06:58;20.60;;;19.20;;
16171;SDS011;8192;53.596;10.166;2023-11-21T04:09:25;20.80;;;19.30;;
16171;SDS011;8192;53.596;10.166;2023-11-21T04:11:52;20.93;;;19.43;;
16171;SDS011;8192;53.596;10.166;2023-11-21T04:14:19;20.87;;;19.37;;
16171;SDS011;8192;53.596;10.166;2023-11-21T04:16:46;20.30;;;18.90;;
16171;SDS011;8192;53.596;10.166;2023-11-21T04:19:13;19.93;;;18.53;;
16171;SDS011;8192;53.596;10.166;2023-11-21T04:21:40;21.03;;;19.53;;
16171;SDS011;8192;53.596;10.166;2023-11-21T04:24:09;20.10;;;18.70;;
16171;SDS011;8192;53.596;10.166;2023-11-21T04:26:36;19.70;;;18.30;;
16171;SDS011;8192;53.596;10.166;2023-11-21T04:29:04;19.77;;;18.37;;
16171;SDS011;8192;53.596;10.166;2023-11-21T04:31:31;21.10;;;19.70;;
16171;SDS011;8192;53.596;10.166;2023-11-21T04:33:58;20.53;;;19.13;;
16171;SDS011;8192;53.596;10.166;2023-11-21T04:36:25;20.77;;;19.37;;
16171;SDS011;8192;53.596;10.166;2023-11-21T04:38:52;20.70;;;19.30;;
16171;SDS011;8192;53.596;10.166;2023-11-21T04:41:20;20.33;;;18.93;;
16171;SDS011;8192;53.596;10.166;2023-11-21T04:43:47;20.07;;;18.67;;
16171;SDS011;8192;53.596;10.166;2023-11-21T04:46:15;20.40;;;19.00;;
16171;SDS011;8192;53.596;10.166;2023-11-21T04:48:42;19.93;;;18.53;;
16171;SDS011;8192;53.596;10.166;2023-11-21T04:51:09;20.10;;;18.70;;
16171;SDS011;8192;53.596;10.166;2023-11-21T04:53:36;20.00;;;18.60;;
16171;SDS011;8192;53.596;10.166;2023-11-21T04:56:04;19.97;;;18.57;;
16171;SDS011;8192;53.596;10.166;2023-11-21T04:58:33;20.73;;;19.33;;
16171;SDS011;8192;53.596;10.166;2023-11-21T05:01:01;20.70;;;19.30;;
16171;SDS011;8192;53.596;10.166;2023-11-21T05:03:28;21.20;;;19.70;;
16171;SDS011;8192;53.596;10.166;2023-11-21T05:05:56;19.87;;;18.57;;
16171;SDS011;8192;53.596;10.166;2023-11-21T05:08:23;19.73;;;18.43;;
16171;SDS011;8192;53.596;10.166;2023-11-21T05:10:50;19.97;;;18.67;;
16171;SDS011;8192;53.596;10.166;2023-11-21T05:13:18;20.23;;;18.93;;
16171;SDS011;8192;53.596;10.166;2023-11-21T05:15:47;20.07;;;18.67;;
16171;SDS011;8192;53.596;10.166;2023-11-21T05:18:15;19.90;;;18.50;;
16171;SDS011;8192;53.596;10.166;2023-11-21T05:20:42;20.03;;;18.63;;
16171;SDS011;8192;53.596;10.166;2023-11-21T05:23:08;20.27;;;18.87;;
16171;SDS011;8192;53.596;10.166;2023-11-21T05:25:35;19.90;;;18.50;;
16171;SDS011;8192;53.596;10.166;2023-11-21T05:28:02;19.80;;;18.40;;
16171;SDS011;8192;53.596;10.166;2023-11-21T05:30:29;19.60;;;18.30;;
16171;SDS011;8192;53.596;10.166;2023-11-21T05:32:58;21.33;;;19.87;;
16171;SDS011;8192;53.596;10.166;2023-11-21T05:35:25;19.33;;;18.03;;
16171;SDS011;8192;53.596;10.166;2023-11-21T05:37:52;20.17;;;18.77;;
16171;SDS011;8192;53.596;10.166;2023-11-21T05:40:19;19.37;;;18.07;;
16171;SDS011;8192;53.596;10.166;2023-11-21T05:42:47;19.57;;;18.27;;
16171;SDS011;8192;53.596;10.166;2023-11-21T05:45:14;19.73;;;18.43;;
16171;SDS011;8192;53.596;10.166;2023-11-21T05:47:43;19.67;;;18.37;;
16171;SDS011;8192;53.596;10.166;2023-11-21T05:50:13;19.50;;;18.20;;
16171;SDS011;8192;53.596;10.166;2023-11-21T05:52:42;19.33;;;18.03;;
16171;SDS011;8192;53.596;10.166;2023-11-21T05:55:11;18.87;;;17.57;;
16171;SDS011;8192;53.596;10.166;2023-11-21T05:57:42;19.00;;;17.70;;
16171;SDS011;8192;53.596;10.166;2023-11-21T06:00:10;19.27;;;17.97;;
16171;SDS011;8192;53.596;10.166;2023-11-21T06:02:43;19.40;;;18.10;;
16171;SDS011;8192;53.596;10.166;2023-11-21T06:05:10;19.20;;;17.90;;
16171;SDS011;8192;53.596;10.166;2023-11-21T06:07:38;19.00;;;17.70;;
16171;SDS011;8192;53.596;10.166;2023-11-21T06:10:07;18.97;;;17.67;;
16171;SDS011;8192;53.596;10.166;2023-11-21T06:12:35;18.90;;;17.60;;
16171;SDS011;8192;53.596;10.166;2023-11-21T06:15:02;19.10;;;17.80;;
16171;SDS011;8192;53.596;10.166;2023-11-21T06:17:30;19.40;;;18.10;;
16171;SDS011;8192;53.596;10.166;2023-11-21T06:20:00;19.17;;;17.87;;
16171;SDS011;8192;53.596;10.166;2023-11-21T06:22:29;19.40;;;18.10;;
16171;SDS011;8192;53.596;10.166;2023-11-21T06:24:58;19.00;;;17.70;;
16171;SDS011;8192;53.596;10.166;2023-11-21T06:27:25;19.00;;;17.70;;
16171;SDS011;8192;53.596;10.166;2023-11-21T06:29:53;19.43;;;18.13;;
16171;SDS011;8192;53.596;10.166;2023-11-21T06:32:19;18.93;;;17.73;;
16171;SDS011;8192;53.596;10.166;2023-11-21T06:34:47;18.97;;;17.67;;
16171;SDS011;8192;53.596;10.166;2023-11-21T06:37:15;19.00;;;17.70;;
16171;SDS011;8192;53.596;10.166;2023-11-21T06:39:42;19.17;;;17.87;;
16171;SDS011;8192;53.596;10.166;2023-11-21T06:42:10;18.83;;;17.63;;
16171;SDS011;8192;53.596;10.166;2023-11-21T06:44:38;19.20;;;17.90;;
16171;SDS011;8192;53.596;10.166;2023-11-21T06:47:06;19.30;;;18.00;;
16171;SDS011;8192;53.596;10.166;2023-11-21T06:49:33;19.27;;;17.97;;
16171;SDS011;8192;53.596;10.166;2023-11-21T06:52:01;19.03;;;17.73;;
16171;SDS011;8192;53.596;10.166;2023-11-21T06:54:28;19.47;;;18.17;;
16171;SDS011;8192;53.596;10.166;2023-11-21T06:56:56;19.53;;;18.23;;
16171;SDS011;8192;53.596;10.166;2023-11-21T06:59:25;19.37;;;18.07;;
16171;SDS011;8192;53.596;10.166;2023-11-21T07:01:51;19.10;;;17.90;;
16171;SDS011;8192;53.596;10.166;2023-11-21T07:04:19;18.90;;;17.70;;
16171;SDS011;8192;53.596;10.166;2023-11-21T07:06:48;18.90;;;17.70;;
16171;SDS011;8192;53.596;10.166;2023-11-21T07:09:15;19.00;;;17.80;;
16171;SDS011;8192;53.596;10.166;2023-11-21T07:11:43;19.17;;;17.87;;
16171;SDS011;8192;53.596;10.166;2023-11-21T07:14:10;19.03;;;17.73;;
16171;SDS011;8192;53.596;10.166;2023-11-21T07:16:38;18.90;;;17.60;;
16171;SDS011;8192;53.596;10.166;2023-11-21T07:19:05;19.10;;;17.80;;
16171;SDS011;8192;53.596;10.166;2023-11-21T07:21:33;19.50;;;18.20;;
16171;SDS011;8192;53.596;10.166;2023-11-21T07:24:00;19.57;;;18.27;;
16171;SDS011;8192;53.596;10.166;2023-11-21T07:26:28;21.07;;;19.67;;
16171;SDS011;8192;53.596;10.166;2023-11-21T07:28:57;19.20;;;17.90;;
16171;SDS011;8192;53.596;10.166;2023-11-21T07:31:24;19.60;;;18.30;;
16171;SDS011;8192;53.596;10.166;2023-11-21T07:33:53;19.37;;;18.07;;
16171;SDS011;8192;53.596;10.166;2023-11-21T07:36:22;19.40;;;18.10;;
16171;SDS011;8192;53.596;10.166;2023-11-21T07:38:50;19.27;;;17.97;;
16171;SDS011;8192;53.596;10.166;2023-11-21T07:41:17;19.33;;;18.03;;
16171;SDS011;8192;53.596;10.166;2023-11-21T07:43:44;19.80;;;18.30;;
16171;SDS011;8192;53.596;10.166;2023-11-21T07:46:12;19.03;;;17.80;;
16171;SDS011;8192;53.596;10.166;2023-11-21T07:48:39;19.23;;;18.00;;
16171;SDS011;8192;53.596;10.166;2023-11-21T07:51:09;19.20;;;18.00;;
16171;SDS011;8192;53.596;10.166;2023-11-21T07:53:37;19.60;;;18.30;;
16171;SDS011;8192;53.596;10.166;2023-11-21T07:56:05;19.30;;;18.10;;
16171;SDS011;8192;53.596;10.166;2023-11-21T07:58:33;19.50;;;18.20;;
16171;SDS011;8192;53.596;10.166;2023-11-21T08:01:03;19.23;;;17.93;;
16171;SDS011;8192;53.596;10.166;2023-11-21T08:03:30;19.77;;;18.47;;
16171;SDS011;8192;53.596;10.166;2023-11-21T08:05:57;19.40;;;18.10;;
16171;SDS011;8192;53.596;10.166;2023-11-21T08:08:26;19.73;;;18.43;;
16171;SDS011;8192;53.596;10.166;2023-11-21T08:10:53;19.30;;;18.00;;
16171;SDS011;8192;53.596;10.166;2023-11-21T08:13:22;19.17;;;17.87;;
16171;SDS011;8192;53.596;10.166;2023-11-21T08:15:49;19.43;;;18.13;;
16171;SDS011;8192;53.596;10.166;2023-11-21T08:18:16;19.20;;;18.00;;
16171;SDS011;8192;53.596;10.166;2023-11-21T08:20:44;21.47;;;19.57;;
16171;SDS011;8192;53.596;10.166;2023-11-21T08:23:13;19.40;;;18.10;;
16171;SDS011;8192;53.596;10.166;2023-11-21T08:25:43;19.57;;;18.27;;
16171;SDS011;8192;53.596;10.166;2023-11-21T08:28:10;19.53;;;18.23;;
16171;SDS011;8192;53.596;10.166;2023-11-21T08:30:37;19.73;;;18.33;;
16171;SDS011;8192;53.596;10.166;2023-11-21T08:33:04;19.33;;;18.03;;
16171;SDS011;8192;53.596;10.166;2023-11-21T08:35:34;19.40;;;18.10;;
16171;SDS011;8192;53.596;10.166;2023-11-21T08:38:02;19.40;;;18.10;;
16171;SDS011;8192;53.596;10.166;2023-11-21T08:40:29;19.03;;;17.73;;
16171;SDS011;8192;53.596;10.166;2023-11-21T08:42:57;19.80;;;18.50;;
16171;SDS011;8192;53.596;10.166;2023-11-21T08:45:24;19.43;;;18.13;;
16171;SDS011;8192;53.596;10.166;2023-11-21T08:47:52;19.50;;;18.13;;
16171;SDS011;8192;53.596;10.166;2023-11-21T08:50:18;19.50;;;18.10;;
16171;SDS011;8192;53.596;10.166;2023-11-21T08:52:45;19.80;;;18.40;;
16171;SDS011;8192;53.596;10.166;2023-11-21T08:55:14;19.30;;;18.00;;
16171;SDS011;8192;53.596;10.166;2023-11-21T08:57:43;19.40;;;18.00;;
16171;SDS011;8192;53.596;10.166;2023-11-21T09:00:12;19.20;;;17.90;;
16171;SDS011;8192;53.596;10.166;2023-11-21T09:02:42;19.07;;;17.77;;
16171;SDS011;8192;53.596;10.166;2023-11-21T09:05:09;19.00;;;17.70;;
16171;SDS011;8192;53.596;10.166;2023-11-21T09:07:37;18.80;;;17.50;;
16171;SDS011;8192;53.596;10.166;2023-11-21T09:10:06;19.27;;;17.97;;
16171;SDS011;8192;53.596;10.166;2023-11-21T09:12:34;19.10;;;17.80;;
16171;SDS011;8192;53.596;10.166;2023-11-21T09:15:02;19.60;;;18.30;;
16171;SDS011;8192;53.596;10.166;2023-11-21T09:17:31;19.27;;;17.97;;
16171;SDS011;8192;53.596;10.166;2023-11-21T09:20:00;19.80;;;18.50;;
16171;SDS011;8192;53.596;10.166;2023-11-21T09:22:30;19.80;;;18.50;;
16171;SDS011;8192;53.596;10.166;2023-11-21T09:24:57;20.40;;;19.10;;
16171;SDS011;8192;53.596;10.166;2023-11-21T09:27:25;20.40;;;19.10;;
16171;SDS011;8192;53.596;10.166;2023-11-21T09:29:52;20.33;;;19.03;;
16171;SDS011;8192;53.596;10.166;2023-11-21T09:32:20;20.83;;;19.53;;
16171;SDS011;8192;53.596;10.166;2023-11-21T09:34:49;20.80;;;19.40;;
16171;SDS011;8192;53.596;10.166;2023-11-21T09:37:16;20.43;;;19.13;;
16171;SDS011;8192;53.596;10.166;2023-11-21T09:39:44;20.30;;;19.00;;
16171;SDS011;8192;53.596;10.166;2023-11-21T09:42:27;20.17;;;18.87;;
16171;SDS011;8192;53.596;10.166;2023-11-21T09:44:58;20.90;;;19.30;;
16171;SDS011;8192;53.596;10.166;2023-11-21T09:47:30;20.00;;;18.70;;
16171;SDS011;8192;53.596;10.166;2023-11-21T09:49:59;20.00;;;18.70;;
16171;SDS011;8192;53.596;10.166;2023-11-21T09:52:28;21.80;;;20.20;;
16171;SDS011;8192;53.596;10.166;2023-11-21T09:54:57;20.50;;;19.20;;
16171;SDS011;8192;53.596;10.166;2023-11-21T09:57:25;20.53;;;19.23;;
16171;SDS011;8192;53.596;10.166;2023-11-21T09:59:54;20.83;;;19.43;;
16171;SDS011;8192;53.596;10.166;2023-11-21T10:02:24;20.37;;;19.07;;
16171;SDS011;8192;53.596;10.166;2023-11-21T10:04:56;19.93;;;18.63;;
16171;SDS011;8192;53.596;10.166;2023-11-21T10:07:26;21.60;;;20.13;;
16171;SDS011;8192;53.596;10.166;2023-11-21T10:09:56;20.40;;;19.10;;
16171;SDS011;8192;53.596;10.166;2023-11-21T10:12:25;20.70;;;19.30;;
16171;SDS011;8192;53.596;10.166;2023-11-21T10:14:54;20.17;;;18.87;;
16171;SDS011;8192;53.596;10.166;2023-11-21T10:17:27;19.77;;;18.47;;
16171;SDS011;8192;53.596;10.166;2023-11-21T10:19:57;20.03;;;18.73;;
16171;SDS011;8192;53.596;10.166;2023-11-21T10:22:24;20.90;;;19.60;;
16171;SDS011;8192;53.596;10.166;2023-11-21T10:24:53;20.33;;;19.03;;
16171;SDS011;8192;53.596;10.166;2023-11-21T10:27:20;20.80;;;19.40;;
16171;SDS011;8192;53.596;10.166;2023-11-21T10:29:48;20.77;;;19.47;;
16171;SDS011;8192;53.596;10.166;2023-11-21T10:32:18;20.73;;;19.43;;
16171;SDS011;8192;53.596;10.166;2023-11-21T10:34:55;20.87;;;19.50;;
16171;SDS011;8192;53.596;10.166;2023-11-21T10:37:22;20.80;;;19.50;;
16171;SDS011;8192;53.596;10.166;2023-11-21T10:39:51;19.90;;;18.60;;
16171;SDS011;8192;53.596;10.166;2023-11-21T10:42:18;20.43;;;19.13;;
16171;SDS011;8192;53.596;10.166;2023-11-21T10:44:46;21.20;;;19.77;;
16171;SDS011;8192;53.596;10.166;2023-11-21T10:47:13;20.70;;;19.30;;
16171;SDS011;8192;53.596;10.166;2023-11-21T10:49:41;20.17;;;18.87;;
16171;SDS011;8192;53.596;10.166;2023-11-21T10:52:07;21.90;;;20.20;;
16171;SDS011;8192;53.596;10.166;2023-11-21T10:54:42;20.07;;;18.77;;
16171;SDS011;8192;53.596;10.166;2023-11-21T10:57:11;20.57;;;19.17;;
16171;SDS011;8192;53.596;10.166;2023-11-21T10:59:43;20.50;;;19.10;;
16171;SDS011;8192;53.596;10.166;2023-11-21T11:02:14;20.33;;;19.03;;
16171;SDS011;8192;53.596;10.166;2023-11-21T11:04:48;21.27;;;19.87;;
16171;SDS011;8192;53.596;10.166;2023-11-21T11:07:15;20.37;;;18.97;;
16171;SDS011;8192;53.596;10.166;2023-11-21T11:09:43;21.07;;;19.60;;
16171;SDS011;8192;53.596;10.166;2023-11-21T11:12:13;20.30;;;18.90;;
16171;SDS011;8192;53.596;10.166;2023-11-21T11:14:42;20.60;;;19.20;;
16171;SDS011;8192;53.596;10.166;2023-11-21T11:17:10;20.77;;;19.37;;
16171;SDS011;8192;53.596;10.166;2023-11-21T11:19:37;20.80;;;19.40;;
16171;SDS011;8192;53.596;10.166;2023-11-21T11:22:07;20.67;;;19.27;;
16171;SDS011;8192;53.596;10.166;2023-11-21T11:24:47;21.30;;;19.90;;
16171;SDS011;8192;53.596;10.166;2023-11-21T11:27:30;20.53;;;19.13;;
16171;SDS011;8192;53.596;10.166;2023-11-21T11:30:06;20.93;;;19.53;;
16171;SDS011;8192;53.596;10.166;2023-11-21T11:32:43;20.30;;;18.90;;
16171;SDS011;8192;53.596;10.166;2023-11-21T11:35:23;20.67;;;19.27;;
16171;SDS011;8192;53.596;10.166;2023-11-21T11:37:58;20.63;;;19.23;;
16171;SDS011;8192;53.596;10.166;2023-11-21T11:40:25;20.87;;;19.47;;
16171;SDS011;8192;53.596;10.166;2023-11-21T11:43:07;20.77;;;19.37;;
16171;SDS011;8192;53.596;10.166;2023-11-21T11:45:35;20.70;;;19.30;;
16171;SDS011;8192;53.596;10.166;2023-11-21T11:48:06;20.40;;;19.00;;
16171;SDS011;8192;53.596;10.166;2023-11-21T11:50:34;20.37;;;18.97;;
16171;SDS011;8192;53.596;10.166;2023-11-21T11:53:14;20.50;;;19.10;;
16171;SDS011;8192;53.596;10.166;2023-11-21T11:55:42;20.40;;;19.00;;
16171;SDS011;8192;53.596;10.166;2023-11-21T11:58:11;20.47;;;19.07;;
16171;SDS011;8192;53.596;10.166;2023-11-21T12:00:38;20.23;;;18.93;;
16171;SDS011;8192;53.596;10.166;2023-11-21T12:03:07;20.50;;;19.17;;
16171;SDS011;8192;53.596;10.166;2023-11-21T12:05:35;20.27;;;18.87;;
16171;SDS011;8192;53.596;10.166;2023-11-21T12:08:04;20.37;;;18.97;;
16171;SDS011;8192;53.596;10.166;2023-11-21T12:10:32;20.10;;;18.80;;
16171;SDS011;8192;53.596;10.166;2023-11-21T12:13:02;20.20;;;18.80;;
16171;SDS011;8192;53.596;10.166;2023-11-21T12:15:34;20.73;;;19.33;;
16171;SDS011;8192;53.596;10.166;2023-11-21T12:18:01;20.47;;;19.07;;
16171;SDS011;8192;53.596;10.166;2023-11-21T12:20:30;20.70;;;19.30;;
16171;SDS011;8192;53.596;10.166;2023-11-21T12:22:58;21.10;;;19.70;;
16171;SDS011;8192;53.596;10.166;2023-11-21T12:25:27;20.70;;;19.30;;
16171;SDS011;8192;53.596;10.166;2023-11-21T12:27:56;20.20;;;18.90;;
16171;SDS011;8192;53.596;10.166;2023-11-21T12:30:25;20.20;;;18.90;;
16171;SDS011;8192;53.596;10.166;2023-11-21T12:32:55;19.70;;;18.40;;
16171;SDS011;8192;53.596;10.166;2023-11-21T12:35:23;20.47;;;19.17;;
16171;SDS011;8192;53.596;10.166;2023-11-21T12:37:52;20.10;;;18.80;;
16171;SDS011;8192;53.596;10.166;2023-11-21T12:40:22;20.53;;;19.17;;
16171;SDS011;8192;53.596;10.166;2023-11-21T12:42:51;19.67;;;18.37;;
16171;SDS011;8192;53.596;10.166;2023-11-21T12:45:19;19.70;;;18.40;;
16171;SDS011;8192;53.596;10.166;2023-11-21T12:47:48;20.13;;;18.73;;
16171;SDS011;8192;53.596;10.166;2023-11-21T12:50:19;20.37;;;18.97;;
16171;SDS011;8192;53.596;10.166;2023-11-21T12:52:48;20.20;;;18.80;;
16171;SDS011;8192;53.596;10.166;2023-11-21T12:55:18;20.50;;;19.10;;
16171;SDS011;8192;53.596;10.166;2023-11-21T12:57:47;19.73;;;18.43;;
16171;SDS011;8192;53.596;10.166;2023-11-21T13:00:17;20.67;;;19.27;;
16171;SDS011;8192;53.596;10.166;2023-11-21T13:02:53;20.30;;;18.90;;
16171;SDS011;8192;53.596;10.166;2023-11-21T13:05:31;20.23;;;18.83;;
16171;SDS011;8192;53.596;10.166;2023-11-21T13:08:00;20.50;;;19.10;;
16171;SDS011;8192;53.596;10.166;2023-11-21T13:10:29;19.77;;;18.37;;
16171;SDS011;8192;53.596;10.166;2023-11-21T13:12:57;20.20;;;18.80;;
16171;SDS011;8192;53.596;10.166;2023-11-21T13:15:25;20.17;;;18.77;;
16171;SDS011;8192;53.596;10.166;2023-11-21T13:17:53;20.10;;;18.70;;
16171;SDS011;8192;53.596;10.166;2023-11-21T13:20:22;20.00;;;18.60;;
16171;SDS011;8192;53.596;10.166;2023-11-21T13:22:52;19.67;;;18.30;;
16171;SDS011;8192;53.596;10.166;2023-11-21T13:25:22;20.07;;;18.67;;
16171;SDS011;8192;53.596;10.166;2023-11-21T13:27:52;19.93;;;18.53;;
16171;SDS011;8192;53.596;10.166;2023-11-21T13:30:19;20.00;;;18.70;;
16171;SDS011;8192;53.596;10.166;2023-11-21T13:32:51;20.20;;;18.80;;
16171;SDS011;8192;53.596;10.166;2023-11-21T13:35:22;20.40;;;19.00;;
16171;SDS011;8192;53.596;10.166;2023-11-21T13:37:57;19.97;;;18.67;;
16171;SDS011;8192;53.596;10.166;2023-11-21T13:40:31;19.70;;;18.40;;
16171;SDS011;8192;53.596;10.166;2023-11-21T13:42:59;20.27;;;18.87;;
16171;SDS011;8192;53.596;10.166;2023-11-21T13:45:29;19.50;;;18.20;;
16171;SDS011;8192;53.596;10.166;2023-11-21T13:47:56;19.90;;;18.60;;
16171;SDS011;8192;53.596;10.166;2023-11-21T13:50:24;20.50;;;19.10;;
16171;SDS011;8192;53.596;10.166;2023-11-21T13:52:58;19.43;;;18.13;;
16171;SDS011;8192;53.596;10.166;2023-11-21T13:55:29;19.97;;;18.57;;
16171;SDS011;8192;53.596;10.166;2023-11-21T13:57:56;20.33;;;18.93;;
16171;SDS011;8192;53.596;10.166;2023-11-21T14:00:24;21.00;;;19.70;;
16171;SDS011;8192;53.596;10.166;2023-11-21T14:03:09;21.10;;;19.70;;
16171;SDS011;8192;53.596;10.166;2023-11-21T14:05:44;20.30;;;18.90;;
16171;SDS011;8192;53.596;10.166;2023-11-21T14:08:13;20.33;;;18.93;;
16171;SDS011;8192;53.596;10.166;2023-11-21T14:10:45;20.50;;;19.10;;
16171;SDS011;8192;53.596;10.166;2023-11-21T14:13:15;20.30;;;18.90;;
16171;SDS011;8192;53.596;10.166;2023-11-21T14:15:43;19.77;;;18.37;;
16171;SDS011;8192;53.596;10.166;2023-11-21T14:18:11;20.30;;;18.90;;
16171;SDS011;8192;53.596;10.166;2023-11-21T14:20:42;20.40;;;19.00;;
16171;SDS011;8192;53.596;10.166;2023-11-21T14:23:09;20.30;;;18.90;;
16171;SDS011;8192;53.596;10.166;2023-11-21T14:25:38;20.90;;;19.40;;
16171;SDS011;8192;53.596;10.166;2023-11-21T14:28:07;20.07;;;18.67;;